Time;durP1;ratioP1;P1;durP2;ratioP2;P2;SDS_P1;SDS_P2;PMS_P1;PMS_P2;Temp;Humidity;BMP_temperature;BMP_pressure;BME280_temperature;BME280_humidity;BME280_pressure;Samples;Min_cycle;Max_cycle;Signal;HPM_P1;HPM_P2
2021/05/11 00:01:17;;;;;;;10.10;2.90;;;;;;;;;;5056092;28;20127;-49
2021/05/11 00:03:43;;;;;;;12.75;3.20;;;;;;;;;;5059250;28;20029;-44
2021/05/11 00:06:09;;;;;;;8.07;3.65;;;;;;;;;;5059156;28;20154;-50
2021/05/11 00:08:34;;;;;;;4.82;2.30;;;;;;;;;;5061830;28;20480;-47
2021/05/11 00:11:00;;;;;;;8.65;3.15;;;;;;;;;;5061904;28;20059;-47
2021/05/11 00:13:25;;;;;;;5.18;2.40;;;;;;;;;;5060778;28;20039;-49
2021/05/11 00:15:50;;;;;;;16.15;3.65;;;;;;;;;;5064626;28;20139;-45
2021/05/11 00:18:16;;;;;;;12.80;4.22;;;;;;;;;;5057129;28;20037;-47
2021/05/11 00:20:41;;;;;;;12.73;3.95;;;;;;;;;;5060776;28;20128;-45
2021/05/11 00:23:06;;;;;;;8.40;3.38;;;;;;;;;;5060947;28;20029;-44
2021/05/11 00:25:32;;;;;;;12.80;4.50;;;;;;;;;;5061703;28;20048;-46
2021/05/11 00:27:57;;;;;;;7.65;3.67;;;;;;;;;;5069115;28;20036;-45
2021/05/11 00:30:23;;;;;;;13.15;2.67;;;;;;;;;;5068032;28;20041;-47
2021/05/11 00:32:49;;;;;;;7.63;3.88;;;;;;;;;;5065305;28;20488;-47
2021/05/11 00:35:15;;;;;;;7.45;4.22;;;;;;;;;;5064884;28;20041;-47
2021/05/11 00:37:40;;;;;;;7.68;3.13;;;;;;;;;;5063170;28;20090;-45
2021/05/11 00:40:06;;;;;;;6.25;3.08;;;;;;;;;;5066621;28;20040;-46
2021/05/11 00:42:31;;;;;;;8.00;3.75;;;;;;;;;;5069473;28;20350;-45
2021/05/11 00:44:57;;;;;;;13.23;3.20;;;;;;;;;;5062686;28;20029;-45
2021/05/11 00:47:22;;;;;;;7.90;1.75;;;;;;;;;;5059750;28;20068;-44
2021/05/11 00:49:48;;;;;;;4.63;2.17;;;;;;;;;;5058162;28;20088;-49
2021/05/11 00:52:14;;;;;;;8.35;2.92;;;;;;;;;;5063687;28;20070;-48
2021/05/11 00:54:40;;;;;;;12.68;3.13;;;;;;;;;;5063441;28;20057;-47
2021/05/11 00:57:05;;;;;;;6.57;2.55;;;;;;;;;;5066072;28;20033;-47
2021/05/11 00:59:31;;;;;;;16.63;2.45;;;;;;;;;;5058342;28;20090;-47
2021/05/11 01:02:00;;;;;;;29.98;5.25;;;;;;;;;;5059111;28;20036;-45
2021/05/11 01:04:26;;;;;;;14.02;3.65;;;;;;;;;;5057640;28;20040;-45
2021/05/11 01:06:51;;;;;;;11.73;4.50;;;;;;;;;;5062561;28;20036;-44
2021/05/11 01:09:17;;;;;;;10.27;3.95;;;;;;;;;;5060403;28;20528;-49
2021/05/11 01:11:43;;;;;;;11.18;2.25;;;;;;;;;;5061260;28;20037;-48
2021/05/11 01:14:11;;;;;;;18.20;3.25;;;;;;;;;;5060770;28;20115;-46
2021/05/11 01:16:36;;;;;;;21.73;4.30;;;;;;;;;;5064856;28;20062;-46
2021/05/11 01:24:42;;;;;;;9.77;2.38;;;;;;;;;;5050703;28;20119;-46
2021/05/11 01:49:01;;;;;;;19.30;5.18;;;;;;;;;;5060116;28;20048;-48
2021/05/11 02:23:49;;;;;;;8.20;2.15;;;;;;;;;;5056370;28;20083;-47
2021/05/11 02:26:14;;;;;;;10.48;2.60;;;;;;;;;;5060804;28;20476;-45
2021/05/11 02:28:39;;;;;;;12.38;3.35;;;;;;;;;;5040219;28;20060;-46
2021/05/11 02:31:05;;;;;;;11.13;2.78;;;;;;;;;;5057629;28;20037;-47
2021/05/11 02:33:30;;;;;;;10.90;2.65;;;;;;;;;;5061328;28;20649;-47
2021/05/11 02:35:55;;;;;;;10.20;3.92;;;;;;;;;;5064602;28;20040;-48
2021/05/11 02:38:21;;;;;;;21.95;2.55;;;;;;;;;;5062159;28;20038;-46
2021/05/11 02:40:46;;;;;;;3.63;1.88;;;;;;;;;;5065062;28;20036;-45
2021/05/11 02:43:18;;;;;;;9.65;3.15;;;;;;;;;;5063178;28;20154;-44
2021/05/11 02:45:43;;;;;;;10.27;2.00;;;;;;;;;;5067684;28;20038;-47
2021/05/11 02:48:08;;;;;;;6.13;2.20;;;;;;;;;;5069817;28;20041;-44
2021/05/11 02:50:37;;;;;;;8.93;2.20;;;;;;;;;;5060688;28;20601;-47
2021/05/11 02:53:03;;;;;;;8.82;3.20;;;;;;;;;;5066610;28;20047;-44
2021/05/11 02:55:28;;;;;;;12.52;2.35;;;;;;;;;;5063876;28;20036;-45
2021/05/11 02:57:54;;;;;;;3.15;1.38;;;;;;;;;;5063762;28;20032;-44
2021/05/11 03:00:20;;;;;;;5.38;1.55;;;;;;;;;;5060304;28;20090;-47
2021/05/11 03:02:46;;;;;;;4.50;1.80;;;;;;;;;;5059873;28;20047;-45
2021/05/11 03:05:11;;;;;;;9.68;2.35;;;;;;;;;;5059516;28;20040;-46
2021/05/11 03:07:37;;;;;;;11.77;3.08;;;;;;;;;;5053924;28;20476;-48
2021/05/11 03:10:03;;;;;;;5.63;2.53;;;;;;;;;;5067126;28;20131;-46
2021/05/11 03:12:29;;;;;;;5.18;1.60;;;;;;;;;;5066908;28;20815;-45
2021/05/11 03:14:54;;;;;;;9.10;2.90;;;;;;;;;;5062021;28;20036;-45
2021/05/11 03:17:19;;;;;;;5.28;2.03;;;;;;;;;;5060465;28;20029;-50
2021/05/11 03:19:45;;;;;;;8.23;3.13;;;;;;;;;;5062455;28;20044;-47
2021/05/11 03:22:10;;;;;;;5.10;2.22;;;;;;;;;;5062934;28;20025;-46
2021/05/11 03:24:37;;;;;;;10.65;1.25;;;;;;;;;;5056755;28;20052;-47
2021/05/11 03:27:02;;;;;;;6.95;1.52;;;;;;;;;;5061582;28;20036;-45
2021/05/11 03:29:28;;;;;;;14.07;1.52;;;;;;;;;;5057360;28;20508;-45
2021/05/11 03:31:53;;;;;;;2.40;1.10;;;;;;;;;;5060210;28;20037;-45
2021/05/11 03:34:18;;;;;;;6.97;2.30;;;;;;;;;;5059422;28;20808;-44
2021/05/11 03:36:43;;;;;;;10.90;1.52;;;;;;;;;;5057361;28;20039;-46
2021/05/11 03:39:09;;;;;;;10.60;1.42;;;;;;;;;;5062273;28;20051;-46
2021/05/11 03:41:47;;;;;;;2.05;1.45;;;;;;;;;;5057921;28;20048;-47
2021/05/11 03:44:18;;;;;;;4.38;1.65;;;;;;;;;;5062641;28;20044;-48
2021/05/11 03:46:43;;;;;;;8.38;2.22;;;;;;;;;;5069347;28;20045;-45
2021/05/11 03:49:09;;;;;;;5.90;1.98;;;;;;;;;;5062454;28;20048;-43
2021/05/11 03:51:35;;;;;;;2.45;0.88;;;;;;;;;;5063161;28;20596;-45
2021/05/11 03:54:00;;;;;;;8.73;1.42;;;;;;;;;;5060846;28;20063;-48
2021/05/11 03:56:26;;;;;;;3.53;1.63;;;;;;;;;;5061409;28;20045;-49
2021/05/11 03:58:52;;;;;;;8.65;1.70;;;;;;;;;;5057417;28;20036;-47
2021/05/11 04:01:17;;;;;;;4.78;2.35;;;;;;;;;;5060807;28;20513;-48
2021/05/11 04:03:43;;;;;;;2.35;1.45;;;;;;;;;;5066230;28;20396;-47
2021/05/11 04:06:08;;;;;;;1.23;0.35;;;;;;;;;;5065741;28;20623;-46
2021/05/11 04:08:39;;;;;;;5.70;1.50;;;;;;;;;;5067682;28;20052;-48
2021/05/11 04:18:42;;;;;;;9.32;2.17;;;;;;;;;;5066157;28;20032;-44
2021/05/11 04:21:08;;;;;;;2.42;0.95;;;;;;;;;;5072042;28;20043;-45
2021/05/11 04:23:33;;;;;;;6.43;1.58;;;;;;;;;;5070241;28;20052;-45
2021/05/11 04:25:59;;;;;;;6.65;2.88;;;;;;;;;;5060454;28;20032;-47
2021/05/11 04:28:24;;;;;;;17.33;1.65;;;;;;;;;;5061921;28;20070;-46
2021/05/11 04:30:50;;;;;;;5.65;1.58;;;;;;;;;;5065971;28;20040;-45
2021/05/11 04:33:15;;;;;;;4.65;1.77;;;;;;;;;;5067561;28;20765;-45
2021/05/11 04:35:40;;;;;;;6.72;1.10;;;;;;;;;;5061611;28;20067;-43
2021/05/11 04:38:06;;;;;;;2.78;1.58;;;;;;;;;;5065740;28;20055;-46
2021/05/11 04:40:31;;;;;;;3.70;1.08;;;;;;;;;;5063008;28;20038;-43
2021/05/11 04:42:57;;;;;;;1.88;0.73;;;;;;;;;;5063248;28;20429;-43
2021/05/11 04:45:25;;;;;;;3.97;0.93;;;;;;;;;;5066048;28;20056;-44
2021/05/11 04:47:52;;;;;;;16.42;2.83;;;;;;;;;;5061156;28;20056;-45
2021/05/11 04:50:19;;;;;;;3.25;1.55;;;;;;;;;;5064116;28;20888;-47
2021/05/11 04:52:44;;;;;;;3.42;1.73;;;;;;;;;;5062444;28;20041;-45
2021/05/11 04:55:10;;;;;;;6.70;1.60;;;;;;;;;;5061205;28;20047;-45
2021/05/11 04:57:36;;;;;;;4.18;2.17;;;;;;;;;;5065582;28;20114;-44
2021/05/11 05:00:03;;;;;;;11.88;2.33;;;;;;;;;;5066319;28;20516;-44
2021/05/11 05:02:29;;;;;;;6.85;2.35;;;;;;;;;;5062912;28;20477;-47
2021/05/11 05:04:54;;;;;;;5.78;2.28;;;;;;;;;;5063302;28;20050;-46
2021/05/11 05:07:19;;;;;;;2.83;0.75;;;;;;;;;;5068360;28;20089;-47
2021/05/11 05:09:45;;;;;;;6.78;1.40;;;;;;;;;;5068851;28;20157;-48
2021/05/11 05:12:10;;;;;;;10.70;1.60;;;;;;;;;;5066618;28;20029;-49
2021/05/11 05:14:35;;;;;;;3.70;1.45;;;;;;;;;;5061877;28;20036;-46
2021/05/11 05:17:01;;;;;;;8.93;2.10;;;;;;;;;;5042751;28;20029;-44
2021/05/11 05:19:26;;;;;;;6.40;2.47;;;;;;;;;;5064803;28;20037;-44
2021/05/11 05:21:51;;;;;;;3.08;1.38;;;;;;;;;;5062842;28;20033;-45
2021/05/11 05:24:25;;;;;;;6.88;2.97;;;;;;;;;;5061368;28;20197;-45
2021/05/11 05:26:52;;;;;;;8.15;3.08;;;;;;;;;;5064848;28;20036;-44
2021/05/11 05:29:17;;;;;;;10.38;1.92;;;;;;;;;;5066679;28;20047;-47
2021/05/11 05:31:43;;;;;;;7.10;2.17;;;;;;;;;;5064822;28;20036;-50
2021/05/11 05:34:09;;;;;;;4.75;1.70;;;;;;;;;;5064485;28;20037;-48
2021/05/11 05:36:34;;;;;;;12.73;1.95;;;;;;;;;;5065987;28;20032;-48
2021/05/11 05:38:59;;;;;;;31.10;2.72;;;;;;;;;;5065590;28;20137;-49
2021/05/11 05:41:25;;;;;;;2.92;1.85;;;;;;;;;;5067338;28;20044;-47
2021/05/11 05:43:50;;;;;;;8.40;4.70;;;;;;;;;;5067126;28;20028;-49
2021/05/11 05:46:16;;;;;;;4.78;1.33;;;;;;;;;;5058278;28;20087;-47
2021/05/11 05:48:43;;;;;;;4.22;2.03;;;;;;;;;;5037897;28;20064;-47
2021/05/11 05:51:08;;;;;;;7.32;1.95;;;;;;;;;;5060504;28;20040;-49
2021/05/11 05:53:35;;;;;;;10.55;2.25;;;;;;;;;;5061563;28;20114;-44
2021/05/11 05:56:01;;;;;;;9.77;2.25;;;;;;;;;;5063842;28;20094;-47
2021/05/11 05:58:27;;;;;;;4.28;1.38;;;;;;;;;;5062523;28;20469;-58
2021/05/11 06:00:56;;;;;;;1.98;1.67;;;;;;;;;;5058991;28;20041;-58
2021/05/11 06:03:33;;;;;;;7.05;1.73;;;;;;;;;;5062129;28;20442;-57
2021/05/11 06:05:59;;;;;;;14.38;2.67;;;;;;;;;;5061684;28;20048;-57
2021/05/11 06:08:27;;;;;;;9.30;2.00;;;;;;;;;;5063504;28;20039;-58
2021/05/11 06:11:29;;;;;;;6.10;2.60;;;;;;;;;;5068003;28;20075;-58
2021/05/11 06:13:58;;;;;;;10.73;1.98;;;;;;;;;;5055462;28;20713;-58
2021/05/11 06:19:07;;;;;;;7.70;2.10;;;;;;;;;;5067843;28;20422;-58
2021/05/11 06:21:33;;;;;;;7.75;2.13;;;;;;;;;;5064055;28;20135;-58
2021/05/11 06:23:58;;;;;;;5.03;2.20;;;;;;;;;;5062676;28;20078;-58
2021/05/11 06:26:24;;;;;;;5.72;2.67;;;;;;;;;;5065100;28;20826;-58
2021/05/11 06:28:49;;;;;;;1.80;1.00;;;;;;;;;;5070228;28;20042;-58
2021/05/11 06:31:15;;;;;;;13.43;3.58;;;;;;;;;;5061546;28;20037;-58
2021/05/11 06:33:40;;;;;;;11.30;1.67;;;;;;;;;;5064778;28;20499;-44
2021/05/11 06:36:06;;;;;;;5.63;1.83;;;;;;;;;;5064997;28;20045;-44
2021/05/11 06:38:31;;;;;;;5.05;2.00;;;;;;;;;;5058925;28;20037;-47
2021/05/11 06:40:57;;;;;;;3.03;1.67;;;;;;;;;;5060110;28;20032;-45
2021/05/11 06:43:28;;;;;;;7.78;2.67;;;;;;;;;;5062967;28;20064;-45
2021/05/11 06:48:44;;;;;;;5.25;2.45;;;;;;;;;;5059865;28;20039;-47
2021/05/11 06:53:39;;;;;;;3.97;1.73;;;;;;;;;;5069312;28;20071;-48
2021/05/11 06:56:06;;;;;;;4.50;1.67;;;;;;;;;;5058985;28;20049;-46
2021/05/11 06:58:31;;;;;;;11.27;1.92;;;;;;;;;;5054935;28;20033;-47
2021/05/11 07:00:57;;;;;;;11.90;2.40;;;;;;;;;;5054468;28;20106;-50
2021/05/11 07:03:22;;;;;;;5.95;1.23;;;;;;;;;;5056217;28;20065;-48
2021/05/11 07:05:50;;;;;;;3.55;1.90;;;;;;;;;;5055175;28;20524;-49
2021/05/11 07:08:36;;;;;;;3.63;1.90;;;;;;;;;;5041496;28;20037;-47
2021/05/11 07:11:11;;;;;;;5.15;1.30;;;;;;;;;;5061277;28;20120;-43
2021/05/11 07:13:36;;;;;;;5.95;1.58;;;;;;;;;;5056853;28;20463;-41
2021/05/11 07:16:02;;;;;;;13.15;1.40;;;;;;;;;;5062623;28;20037;-42
2021/05/11 07:18:28;;;;;;;2.65;1.92;;;;;;;;;;5060778;28;20108;-42
2021/05/11 07:20:58;;;;;;;5.55;1.85;;;;;;;;;;5060553;28;20041;-42
2021/05/11 07:23:24;;;;;;;7.82;2.58;;;;;;;;;;5058686;28;20504;-41
2021/05/11 07:31:05;;;;;;;3.75;1.70;;;;;;;;;;5061132;28;20033;-45
2021/05/11 07:33:35;;;;;;;3.33;1.73;;;;;;;;;;5056804;28;20058;-44
2021/05/11 07:36:01;;;;;;;9.50;2.63;;;;;;;;;;5051461;28;20127;-44
2021/05/11 07:38:26;;;;;;;10.32;2.88;;;;;;;;;;5063260;28;20544;-46
2021/05/11 07:40:52;;;;;;;6.93;5.45;;;;;;;;;;5066779;28;20032;-45
2021/05/11 07:43:18;;;;;;;10.02;2.92;;;;;;;;;;5066592;28;20033;-46
2021/05/11 07:46:07;;;;;;;5.13;2.20;;;;;;;;;;5061091;28;20080;-46
2021/05/11 08:04:40;;;;;;;13.40;3.35;;;;;;;;;;5065739;28;20651;-44
2021/05/11 08:17:44;;;;;;;11.50;2.05;;;;;;;;;;5063187;28;20057;-46
2021/05/11 08:20:29;;;;;;;3.45;1.92;;;;;;;;;;5063194;28;20062;-48
2021/05/11 08:28:22;;;;;;;9.52;2.03;;;;;;;;;;5063367;28;20040;-46
2021/05/11 08:30:48;;;;;;;4.13;1.48;;;;;;;;;;5061672;28;20040;-45
2021/05/11 08:33:13;;;;;;;2.63;1.10;;;;;;;;;;5064229;28;20040;-47
2021/05/11 08:35:38;;;;;;;12.50;2.05;;;;;;;;;;5064052;28;20107;-45
2021/05/11 08:38:04;;;;;;;8.00;1.52;;;;;;;;;;5067395;28;20575;-46
2021/05/11 08:40:30;;;;;;;5.60;1.75;;;;;;;;;;5061216;28;20045;-46
2021/05/11 08:42:58;;;;;;;2.28;0.82;;;;;;;;;;5058029;28;20476;-47
2021/05/11 08:45:23;;;;;;;4.70;1.25;;;;;;;;;;5062406;28;20040;-47
2021/05/11 08:47:49;;;;;;;3.88;1.30;;;;;;;;;;5058659;28;20041;-44
2021/05/11 08:50:15;;;;;;;2.15;0.77;;;;;;;;;;5060972;28;20047;-48
2021/05/11 09:06:17;;;;;;;3.90;1.13;;;;;;;;;;5047735;28;20150;-54
2021/05/11 09:32:51;;;;;;;2.08;0.20;;;;;;;;;;5062341;28;20803;-39
2021/05/11 10:49:25;;;;;;;5.93;1.90;;;;;;;;;;5060605;28;20653;-44
2021/05/11 10:52:03;;;;;;;2.38;1.27;;;;;;;;;;5058848;28;20119;-45
2021/05/11 10:55:19;;;;;;;2.50;0.65;;;;;;;;;;5058024;28;20163;-43
2021/05/11 11:00:42;;;;;;;1.73;0.88;;;;;;;;;;5061212;28;20044;-45
2021/05/11 11:03:14;;;;;;;6.57;4.13;;;;;;;;;;5059620;28;20056;-44
2021/05/11 11:05:43;;;;;;;10.57;1.80;;;;;;;;;;5062077;28;20033;-43
2021/05/11 11:08:27;;;;;;;2.42;0.85;;;;;;;;;;5030708;28;20134;-47
2021/05/11 11:11:14;;;;;;;2.80;0.52;;;;;;;;;;5060198;28;20028;-45
2021/05/11 11:13:40;;;;;;;1.67;0.63;;;;;;;;;;5060890;28;20033;-46
2021/05/11 11:16:06;;;;;;;2.38;1.38;;;;;;;;;;5060446;28;20040;-49
2021/05/11 11:18:32;;;;;;;5.32;0.77;;;;;;;;;;5060682;28;20418;-44
2021/05/11 11:21:19;;;;;;;7.95;0.98;;;;;;;;;;5062958;28;20058;-49
2021/05/11 11:23:49;;;;;;;8.68;0.85;;;;;;;;;;5062484;28;20048;-45
2021/05/11 11:26:25;;;;;;;11.80;2.13;;;;;;;;;;5064708;28;20052;-45
2021/05/11 11:28:58;;;;;;;19.58;1.67;;;;;;;;;;5060062;28;20036;-45
2021/05/11 11:31:24;;;;;;;1.45;0.50;;;;;;;;;;5069087;28;20047;-47
2021/05/11 11:33:49;;;;;;;5.95;0.90;;;;;;;;;;5072087;28;20031;-46
2021/05/11 11:36:28;;;;;;;6.97;1.80;;;;;;;;;;5047103;28;20052;-46
2021/05/11 11:38:53;;;;;;;8.73;6.32;;;;;;;;;;5060763;28;20024;-43
2021/05/11 11:41:23;;;;;;;2.63;0.50;;;;;;;;;;5062303;28;20047;-44
2021/05/11 11:43:50;;;;;;;2.17;0.95;;;;;;;;;;5060859;28;20067;-43
2021/05/11 11:46:22;;;;;;;2.00;0.82;;;;;;;;;;5054727;28;20091;-45
2021/05/11 11:48:55;;;;;;;3.42;1.55;;;;;;;;;;5058248;28;20367;-45
2021/05/11 11:51:28;;;;;;;7.68;0.90;;;;;;;;;;5059401;28;20060;-46
2021/05/11 11:55:18;;;;;;;4.82;1.10;;;;;;;;;;5059058;28;20627;-45
2021/05/11 12:00:13;;;;;;;6.05;1.35;;;;;;;;;;5056448;28;20493;-42
2021/05/11 12:02:49;;;;;;;6.78;1.52;;;;;;;;;;5061498;28;20111;-48
2021/05/11 12:05:15;;;;;;;1.13;0.60;;;;;;;;;;5064659;28;20082;-46
2021/05/11 12:07:56;;;;;;;1.42;0.90;;;;;;;;;;5062255;28;20589;-51
2021/05/11 12:10:22;;;;;;;5.28;0.68;;;;;;;;;;5059564;28;20052;-45
2021/05/11 12:12:48;;;;;;;3.45;1.15;;;;;;;;;;5056977;28;20036;-48
2021/05/11 12:15:19;;;;;;;2.13;0.80;;;;;;;;;;5058623;28;20617;-48
2021/05/11 12:17:46;;;;;;;14.77;2.17;;;;;;;;;;5064794;28;20075;-44
2021/05/11 12:20:24;;;;;;;4.13;0.65;;;;;;;;;;5060014;28;20083;-44
2021/05/11 12:23:01;;;;;;;6.25;1.35;;;;;;;;;;5068950;28;20036;-45
2021/05/11 12:25:26;;;;;;;2.92;1.08;;;;;;;;;;5067152;28;20048;-45
2021/05/11 12:27:51;;;;;;;1.58;0.85;;;;;;;;;;5062247;28;20044;-47
2021/05/11 12:30:17;;;;;;;1.75;0.80;;;;;;;;;;5070857;28;20159;-45
2021/05/11 12:32:42;;;;;;;3.63;0.52;;;;;;;;;;5064821;28;20493;-48
2021/05/11 12:35:11;;;;;;;1.25;0.65;;;;;;;;;;5061788;28;20051;-47
2021/05/11 12:37:54;;;;;;;0.68;0.45;;;;;;;;;;5061692;28;20107;-45
2021/05/11 12:42:48;;;;;;;3.08;0.55;;;;;;;;;;5070255;28;20123;-45
2021/05/11 12:45:16;;;;;;;1.45;0.90;;;;;;;;;;5063238;28;20164;-43
2021/05/11 12:48:14;;;;;;;0.93;0.38;;;;;;;;;;5064992;28;20424;-43
2021/05/11 12:50:40;;;;;;;2.92;1.27;;;;;;;;;;5037131;28;20039;-43
2021/05/11 12:53:26;;;;;;;5.07;0.98;;;;;;;;;;5066100;28;20037;-47
2021/05/11 12:58:40;;;;;;;3.00;0.73;;;;;;;;;;5062098;28;20028;-46
2021/05/11 13:01:24;;;;;;;3.70;0.75;;;;;;;;;;5060994;28;20028;-43
2021/05/11 13:04:13;;;;;;;0.50;0.35;;;;;;;;;;5062256;28;20031;-49
2021/05/11 13:13:40;;;;;;;6.38;1.42;;;;;;;;;;5063427;28;20800;-44
2021/05/11 13:25:58;;;;;;;1.20;0.52;;;;;;;;;;5063914;28;20048;-45
2021/05/11 13:31:00;;;;;;;1.05;0.73;;;;;;;;;;5061141;28;20187;-42
2021/05/11 13:35:57;;;;;;;;;;;;;;;;;;5057050;28;20443;-46
2021/05/11 13:38:22;;;;;;;1.05;0.40;;;;;;;;;;5069196;28;20358;-43
2021/05/11 13:40:48;;;;;;;3.25;0.73;;;;;;;;;;5068152;28;20037;-48
2021/05/11 13:43:13;;;;;;;0.52;0.28;;;;;;;;;;5063642;28;20040;-43
2021/05/11 13:45:38;;;;;;;4.20;0.55;;;;;;;;;;5061693;28;20047;-47
2021/05/11 13:53:14;;;;;;;2.20;0.82;;;;;;;;;;5064406;28;20047;-44
2021/05/11 13:55:52;;;;;;;3.33;0.63;;;;;;;;;;5065165;28;20029;-44
2021/05/11 14:03:46;;;;;;;1.42;0.60;;;;;;;;;;5062229;28;20035;-45
2021/05/11 14:06:12;;;;;;;6.68;1.05;;;;;;;;;;5067194;28;20040;-45
2021/05/11 14:08:37;;;;;;;9.75;0.98;;;;;;;;;;5062665;28;20037;-47
2021/05/11 14:11:03;;;;;;;1.05;0.73;;;;;;;;;;5056698;28;20037;-44
2021/05/11 14:13:28;;;;;;;2.65;1.17;;;;;;;;;;5060656;28;20536;-46
2021/05/11 14:15:53;;;;;;;0.50;0.30;;;;;;;;;;5064028;28;20044;-44
2021/05/11 14:18:19;;;;;;;1.02;0.70;;;;;;;;;;5060448;28;20032;-44
2021/05/11 14:20:44;;;;;;;4.20;0.60;;;;;;;;;;5059403;28;20091;-43
2021/05/11 14:23:09;;;;;;;1.35;0.75;;;;;;;;;;5055515;28;20047;-44
2021/05/11 14:25:35;;;;;;;7.43;0.68;;;;;;;;;;5063235;28;20131;-46
2021/05/11 14:28:00;;;;;;;7.90;1.40;;;;;;;;;;5063172;28;20067;-44
2021/05/11 14:30:25;;;;;;;2.00;0.88;;;;;;;;;;5062922;28;20040;-45
2021/05/11 14:32:51;;;;;;;2.90;0.98;;;;;;;;;;5062463;28;20791;-44
2021/05/11 14:35:16;;;;;;;2.38;0.73;;;;;;;;;;5057077;28;20044;-45
2021/05/11 14:37:41;;;;;;;0.70;0.50;;;;;;;;;;5060352;28;20035;-43
2021/05/11 14:40:07;;;;;;;8.55;0.40;;;;;;;;;;5063369;28;20040;-44
2021/05/11 14:42:32;;;;;;;3.33;0.50;;;;;;;;;;5059514;28;20036;-43
2021/05/11 14:44:58;;;;;;;0.77;0.35;;;;;;;;;;5059776;28;20040;-45
2021/05/11 14:47:23;;;;;;;0.80;0.38;;;;;;;;;;5062480;28;20032;-44
2021/05/11 14:49:48;;;;;;;3.25;0.65;;;;;;;;;;5063947;28;20122;-46
2021/05/11 14:52:14;;;;;;;2.10;1.05;;;;;;;;;;5060276;28;20123;-44
2021/05/11 14:54:39;;;;;;;13.57;0.93;;;;;;;;;;5058359;28;20461;-44
2021/05/11 14:57:05;;;;;;;0.45;0.28;;;;;;;;;;5064220;28;20386;-44
2021/05/11 14:59:30;;;;;;;0.63;0.40;;;;;;;;;;5063293;28;20024;-44
2021/05/11 15:01:55;;;;;;;0.93;0.40;;;;;;;;;;5050028;28;20098;-45
2021/05/11 15:04:21;;;;;;;0.57;0.20;;;;;;;;;;5061926;28;20029;-48
2021/05/11 15:06:46;;;;;;;0.68;0.30;;;;;;;;;;5060948;28;20032;-44
2021/05/11 15:09:12;;;;;;;2.92;1.30;;;;;;;;;;5056787;28;20098;-44
2021/05/11 15:11:37;;;;;;;0.95;0.55;;;;;;;;;;5062253;28;20029;-42
2021/05/11 15:14:03;;;;;;;0.10;0.10;;;;;;;;;;5071545;28;20078;-45
2021/05/11 15:16:31;;;;;;;1.33;0.50;;;;;;;;;;5057850;28;20071;-43
2021/05/11 15:18:56;;;;;;;0.57;0.35;;;;;;;;;;5060935;28;20033;-43
2021/05/11 15:21:22;;;;;;;0.40;0.20;;;;;;;;;;5059099;28;20043;-42
2021/05/11 15:23:47;;;;;;;0.10;0.10;;;;;;;;;;5060350;28;20052;-44
2021/05/11 15:26:13;;;;;;;3.38;0.88;;;;;;;;;;5053947;28;20033;-44
2021/05/11 15:28:39;;;;;;;2.28;1.75;;;;;;;;;;5058192;28;20094;-45
2021/05/11 15:31:05;;;;;;;8.88;1.05;;;;;;;;;;5056625;28;20133;-46
2021/05/11 15:33:30;;;;;;;1.33;0.60;;;;;;;;;;5059627;28;20090;-42
2021/05/11 15:35:55;;;;;;;1.13;0.63;;;;;;;;;;5059329;28;20124;-45
2021/05/11 15:38:21;;;;;;;1.70;0.73;;;;;;;;;;5062229;28;20084;-43
2021/05/11 15:40:46;;;;;;;10.15;0.85;;;;;;;;;;5065638;28;20044;-44
2021/05/11 15:43:12;;;;;;;2.40;0.60;;;;;;;;;;5063080;28;20499;-45
2021/05/11 15:45:38;;;;;;;8.43;0.90;;;;;;;;;;5063105;28;20564;-45
2021/05/11 15:48:06;;;;;;;1.38;0.55;;;;;;;;;;5062737;28;20068;-45
2021/05/11 15:50:32;;;;;;;1.92;1.05;;;;;;;;;;5059623;28;20063;-45
2021/05/11 15:53:02;;;;;;;1.48;0.50;;;;;;;;;;5054116;28;20032;-43
2021/05/11 15:55:29;;;;;;;3.47;1.02;;;;;;;;;;5045957;28;20493;-45
2021/05/11 15:57:54;;;;;;;1.45;0.38;;;;;;;;;;5063551;28;20044;-43
2021/05/11 16:00:20;;;;;;;1.00;0.40;;;;;;;;;;5062124;28;20106;-42
2021/05/11 16:02:45;;;;;;;1.75;0.52;;;;;;;;;;5064657;28;20039;-45
2021/05/11 16:05:11;;;;;;;1.08;0.43;;;;;;;;;;5063676;28;20029;-44
2021/05/11 16:07:36;;;;;;;3.15;0.75;;;;;;;;;;5054320;28;20481;-44
2021/05/11 16:10:07;;;;;;;1.25;0.25;;;;;;;;;;5063580;28;20219;-48
2021/05/11 16:12:32;;;;;;;3.45;1.20;;;;;;;;;;5062651;28;20094;-48
2021/05/11 16:15:02;;;;;;;8.63;1.48;;;;;;;;;;5063204;28;20427;-47
2021/05/11 16:17:28;;;;;;;6.47;0.70;;;;;;;;;;5060251;28;20036;-42
2021/05/11 16:19:53;;;;;;;0.32;0.20;;;;;;;;;;5062470;28;20097;-41
2021/05/11 16:22:18;;;;;;;1.27;0.40;;;;;;;;;;5060817;28;20033;-43
2021/05/11 16:24:44;;;;;;;2.38;1.98;;;;;;;;;;5061064;28;20056;-42
2021/05/11 16:27:09;;;;;;;10.43;0.63;;;;;;;;;;5060317;28;20426;-41
2021/05/11 16:29:34;;;;;;;1.92;0.73;;;;;;;;;;5068667;28;20040;-42
2021/05/11 16:32:00;;;;;;;0.47;0.28;;;;;;;;;;5058587;28;20037;-43
2021/05/11 16:34:26;;;;;;;0.75;0.52;;;;;;;;;;5062120;28;20048;-42
2021/05/11 16:36:52;;;;;;;1.65;0.47;;;;;;;;;;5062878;28;20632;-43
2021/05/11 16:39:17;;;;;;;0.32;0.30;;;;;;;;;;5064427;28;20166;-43
2021/05/11 16:41:43;;;;;;;0.90;0.43;;;;;;;;;;5059274;28;20044;-44
2021/05/11 16:44:08;;;;;;;2.92;0.50;;;;;;;;;;5062306;28;20774;-42
2021/05/11 16:46:34;;;;;;;7.10;3.55;;;;;;;;;;5060334;28;20086;-41
2021/05/11 16:49:00;;;;;;;4.65;0.70;;;;;;;;;;5060807;28;20041;-46
2021/05/11 16:51:26;;;;;;;1.35;0.70;;;;;;;;;;5066252;28;20131;-46
2021/05/11 16:53:52;;;;;;;1.98;1.13;;;;;;;;;;5060705;28;20564;-42
2021/05/11 16:56:17;;;;;;;0.63;0.52;;;;;;;;;;5064097;28;20041;-41
2021/05/11 16:58:42;;;;;;;2.78;1.23;;;;;;;;;;5061668;28;20131;-41
2021/05/11 17:01:08;;;;;;;0.65;0.38;;;;;;;;;;5065297;28;20047;-43
2021/05/11 17:03:33;;;;;;;1.33;0.30;;;;;;;;;;5061068;28;20124;-43
2021/05/11 17:05:58;;;;;;;1.27;0.50;;;;;;;;;;5064102;28;20088;-42
2021/05/11 17:08:23;;;;;;;2.63;1.42;;;;;;;;;;5040825;28;20668;-44
2021/05/11 17:10:49;;;;;;;1.17;0.73;;;;;;;;;;5058978;28;20549;-45
2021/05/11 17:13:14;;;;;;;0.22;0.20;;;;;;;;;;5059698;28;20124;-43
2021/05/11 17:15:39;;;;;;;2.10;0.75;;;;;;;;;;5058563;28;20193;-46
2021/05/11 17:18:06;;;;;;;1.45;0.70;;;;;;;;;;5055538;28;20119;-46
2021/05/11 17:20:32;;;;;;;0.70;0.40;;;;;;;;;;5058640;28;20048;-42
2021/05/11 17:22:58;;;;;;;2.75;0.40;;;;;;;;;;5058885;28;20195;-40
2021/05/11 17:25:24;;;;;;;2.83;0.70;;;;;;;;;;5057931;28;20053;-44
2021/05/11 17:27:51;;;;;;;0.20;0.10;;;;;;;;;;5057840;28;20150;-43
2021/05/11 17:30:16;;;;;;;2.05;0.47;;;;;;;;;;5060434;28;20071;-44
2021/05/11 17:32:44;;;;;;;0.43;0.30;;;;;;;;;;5055691;28;20450;-44
2021/05/11 17:35:14;;;;;;;0.60;0.30;;;;;;;;;;5060099;28;20041;-42
2021/05/11 17:37:40;;;;;;;0.38;0.10;;;;;;;;;;5063178;28;20448;-43
2021/05/11 17:40:07;;;;;;;2.25;0.98;;;;;;;;;;5062428;28;20033;-41
2021/05/11 17:42:33;;;;;;;0.98;0.47;;;;;;;;;;5063840;28;20540;-43
2021/05/11 17:44:58;;;;;;;1.17;0.45;;;;;;;;;;5067793;28;20044;-41
2021/05/11 17:47:24;;;;;;;2.00;0.55;;;;;;;;;;5060198;28;20045;-41
2021/05/11 17:49:49;;;;;;;0.85;0.20;;;;;;;;;;5063686;28;20028;-44
2021/05/11 17:52:15;;;;;;;0.93;0.50;;;;;;;;;;5059230;28;20065;-41
2021/05/11 17:54:40;;;;;;;2.17;0.88;;;;;;;;;;5065761;28;20040;-41
2021/05/11 17:57:06;;;;;;;1.00;0.55;;;;;;;;;;5079780;28;20447;-42
2021/05/11 17:59:31;;;;;;;10.88;1.77;;;;;;;;;;5061043;28;20645;-41
2021/05/11 18:01:56;;;;;;;0.22;0.20;;;;;;;;;;5061588;28;20032;-41
2021/05/11 18:04:21;;;;;;;0.30;0.17;;;;;;;;;;5058873;28;20037;-41
2021/05/11 18:06:47;;;;;;;0.65;0.50;;;;;;;;;;5060347;28;20028;-40
2021/05/11 18:09:14;;;;;;;0.22;0.10;;;;;;;;;;5062492;28;20045;-41
2021/05/11 18:11:41;;;;;;;7.93;2.72;;;;;;;;;;5067313;28;20447;-41
2021/05/11 18:14:06;;;;;;;0.75;0.30;;;;;;;;;;5062647;28;20727;-40
2021/05/11 18:16:32;;;;;;;1.17;0.75;;;;;;;;;;5059832;28;20037;-42
2021/05/11 18:18:57;;;;;;;2.53;0.45;;;;;;;;;;5068456;28;20503;-43
2021/05/11 18:21:22;;;;;;;1.08;0.77;;;;;;;;;;5069824;28;20642;-42
2021/05/11 18:23:48;;;;;;;0.52;0.30;;;;;;;;;;5060922;28;20540;-42
2021/05/11 18:26:13;;;;;;;7.43;0.32;;;;;;;;;;5061737;28;20036;-44
2021/05/11 18:28:39;;;;;;;3.72;1.35;;;;;;;;;;5061632;28;20051;-45
2021/05/11 18:31:04;;;;;;;1.20;0.38;;;;;;;;;;5056138;28;20037;-43
2021/05/11 18:33:31;;;;;;;0.60;0.40;;;;;;;;;;5060560;28;20048;-45
2021/05/11 18:35:56;;;;;;;1.13;0.50;;;;;;;;;;5062649;28;20044;-45
2021/05/11 18:38:24;;;;;;;1.48;0.65;;;;;;;;;;5065774;28;20035;-44
2021/05/11 18:40:50;;;;;;;4.00;0.80;;;;;;;;;;5057053;28;20032;-43
2021/05/11 18:43:15;;;;;;;1.08;0.65;;;;;;;;;;5063591;28;20036;-43
2021/05/11 18:45:40;;;;;;;0.68;0.28;;;;;;;;;;5062057;28;20119;-42
2021/05/11 18:48:06;;;;;;;7.53;1.63;;;;;;;;;;5067890;28;20499;-45
2021/05/11 18:50:32;;;;;;;2.92;0.90;;;;;;;;;;5058598;28;20155;-44
2021/05/11 18:52:58;;;;;;;0.38;0.20;;;;;;;;;;5070419;28;20451;-43
2021/05/11 18:55:24;;;;;;;0.80;0.30;;;;;;;;;;5067441;28;20071;-42
2021/05/11 18:57:49;;;;;;;1.75;0.55;;;;;;;;;;5057823;28;20042;-43
2021/05/11 19:00:15;;;;;;;0.57;0.47;;;;;;;;;;5060510;28;20722;-43
2021/05/11 19:02:41;;;;;;;2.55;0.75;;;;;;;;;;5063029;28;20033;-44
2021/05/11 19:05:07;;;;;;;2.15;1.17;;;;;;;;;;5067616;28;20025;-44
2021/05/11 19:07:32;;;;;;;0.10;0.03;;;;;;;;;;5061762;28;20040;-42
2021/05/11 19:09:58;;;;;;;0.98;0.50;;;;;;;;;;5058414;28;20037;-43